sensor_id;sensor_type;location;lat;lon;timestamp;P1;durP1;ratioP1;P2;durP2;ratioP2
35084;SDS011;21267;51.032;6.998;2024-03-08T00:02:15;24.58;;;19.25;;
35084;SDS011;21267;51.032;6.998;2024-03-08T00:04:42;26.30;;;20.27;;
35084;SDS011;21267;51.032;6.998;2024-03-08T00:07:09;24.77;;;19.93;;
35084;SDS011;21267;51.032;6.998;2024-03-08T00:09:36;24.20;;;19.13;;
35084;SDS011;21267;51.032;6.998;2024-03-08T00:12:02;26.90;;;19.63;;
35084;SDS011;21267;51.032;6.998;2024-03-08T00:14:30;26.10;;;18.83;;
35084;SDS011;21267;51.032;6.998;2024-03-08T00:16:56;27.60;;;19.65;;
35084;SDS011;21267;51.032;6.998;2024-03-08T00:19:23;25.45;;;20.88;;
35084;SDS011;21267;51.032;6.998;2024-03-08T00:21:50;25.95;;;18.95;;
35084;SDS011;21267;51.032;6.998;2024-03-08T00:24:17;25.60;;;19.55;;
35084;SDS011;21267;51.032;6.998;2024-03-08T00:26:44;28.08;;;20.30;;
35084;SDS011;21267;51.032;6.998;2024-03-08T00:29:11;25.25;;;19.58;;
35084;SDS011;21267;51.032;6.998;2024-03-08T00:31:39;26.48;;;21.33;;
35084;SDS011;21267;51.032;6.998;2024-03-08T00:34:06;24.48;;;18.50;;
35084;SDS011;21267;51.032;6.998;2024-03-08T00:36:33;22.48;;;19.17;;
35084;SDS011;21267;51.032;6.998;2024-03-08T00:39:00;23.33;;;19.00;;
35084;SDS011;21267;51.032;6.998;2024-03-08T00:41:28;27.23;;;19.40;;
35084;SDS011;21267;51.032;6.998;2024-03-08T00:43:55;27.48;;;19.60;;
35084;SDS011;21267;51.032;6.998;2024-03-08T00:46:22;26.60;;;20.27;;
35084;SDS011;21267;51.032;6.998;2024-03-08T00:48:49;29.63;;;20.58;;
35084;SDS011;21267;51.032;6.998;2024-03-08T00:51:16;26.70;;;19.83;;
35084;SDS011;21267;51.032;6.998;2024-03-08T00:53:43;20.77;;;15.37;;
35084;SDS011;21267;51.032;6.998;2024-03-08T00:56:10;23.83;;;19.33;;
35084;SDS011;21267;51.032;6.998;2024-03-08T01:01:38;27.42;;;20.60;;
35084;SDS011;21267;51.032;6.998;2024-03-08T01:04:06;25.90;;;20.75;;
35084;SDS011;21267;51.032;6.998;2024-03-08T01:06:34;28.65;;;19.95;;
35084;SDS011;21267;51.032;6.998;2024-03-08T01:09:01;27.83;;;20.05;;
35084;SDS011;21267;51.032;6.998;2024-03-08T01:11:28;27.23;;;21.63;;
35084;SDS011;21267;51.032;6.998;2024-03-08T01:13:55;26.83;;;21.88;;
35084;SDS011;21267;51.032;6.998;2024-03-08T01:16:22;25.90;;;20.52;;
35084;SDS011;21267;51.032;6.998;2024-03-08T01:18:49;28.60;;;19.95;;
35084;SDS011;21267;51.032;6.998;2024-03-08T01:21:17;27.77;;;21.73;;
35084;SDS011;21267;51.032;6.998;2024-03-08T01:23:44;28.30;;;20.80;;
35084;SDS011;21267;51.032;6.998;2024-03-08T01:26:11;30.13;;;21.67;;
35084;SDS011;21267;51.032;6.998;2024-03-08T01:28:38;26.20;;;19.57;;
35084;SDS011;21267;51.032;6.998;2024-03-08T01:31:04;26.10;;;21.13;;
35084;SDS011;21267;51.032;6.998;2024-03-08T01:33:32;26.45;;;19.75;;
35084;SDS011;21267;51.032;6.998;2024-03-08T01:35:59;28.60;;;21.73;;
35084;SDS011;21267;51.032;6.998;2024-03-08T01:38:26;27.20;;;20.93;;
35084;SDS011;21267;51.032;6.998;2024-03-08T01:40:53;28.43;;;21.37;;
35084;SDS011;21267;51.032;6.998;2024-03-08T01:43:21;29.58;;;21.35;;
35084;SDS011;21267;51.032;6.998;2024-03-08T01:45:48;29.13;;;20.48;;
35084;SDS011;21267;51.032;6.998;2024-03-08T01:48:15;28.45;;;21.95;;
35084;SDS011;21267;51.032;6.998;2024-03-08T01:50:44;29.00;;;20.58;;
35084;SDS011;21267;51.032;6.998;2024-03-08T01:53:12;29.50;;;21.20;;
35084;SDS011;21267;51.032;6.998;2024-03-08T01:55:41;29.73;;;19.60;;
35084;SDS011;21267;51.032;6.998;2024-03-08T01:58:09;30.17;;;21.13;;
35084;SDS011;21267;51.032;6.998;2024-03-08T02:00:38;28.27;;;21.50;;
35084;SDS011;21267;51.032;6.998;2024-03-08T02:03:07;28.60;;;21.42;;
35084;SDS011;21267;51.032;6.998;2024-03-08T02:05:34;29.60;;;22.30;;
35084;SDS011;21267;51.032;6.998;2024-03-08T02:08:01;26.83;;;21.40;;
35084;SDS011;21267;51.032;6.998;2024-03-08T02:10:29;29.30;;;21.80;;
35084;SDS011;21267;51.032;6.998;2024-03-08T02:12:56;26.08;;;20.15;;
35084;SDS011;21267;51.032;6.998;2024-03-08T02:15:22;30.88;;;22.08;;
35084;SDS011;21267;51.032;6.998;2024-03-08T02:17:49;27.00;;;21.10;;
35084;SDS011;21267;51.032;6.998;2024-03-08T02:20:16;26.83;;;20.35;;
35084;SDS011;21267;51.032;6.998;2024-03-08T02:22:46;27.23;;;21.73;;
35084;SDS011;21267;51.032;6.998;2024-03-08T02:25:13;26.77;;;21.45;;
35084;SDS011;21267;51.032;6.998;2024-03-08T02:27:39;30.58;;;20.83;;
35084;SDS011;21267;51.032;6.998;2024-03-08T02:30:07;27.53;;;21.43;;
35084;SDS011;21267;51.032;6.998;2024-03-08T02:32:34;30.00;;;22.90;;
35084;SDS011;21267;51.032;6.998;2024-03-08T02:35:01;30.17;;;21.93;;
35084;SDS011;21267;51.032;6.998;2024-03-08T02:37:28;29.08;;;22.02;;
35084;SDS011;21267;51.032;6.998;2024-03-08T02:39:55;26.25;;;21.73;;
35084;SDS011;21267;51.032;6.998;2024-03-08T02:42:22;29.63;;;21.93;;
35084;SDS011;21267;51.032;6.998;2024-03-08T02:44:49;30.10;;;22.50;;
35084;SDS011;21267;51.032;6.998;2024-03-08T02:47:16;27.73;;;21.00;;
35084;SDS011;21267;51.032;6.998;2024-03-08T02:49:43;27.38;;;20.38;;
35084;SDS011;21267;51.032;6.998;2024-03-08T02:52:10;27.00;;;21.63;;
35084;SDS011;21267;51.032;6.998;2024-03-08T02:54:37;26.47;;;22.27;;
35084;SDS011;21267;51.032;6.998;2024-03-08T02:57:04;29.70;;;22.13;;
35084;SDS011;21267;51.032;6.998;2024-03-08T02:59:33;29.55;;;23.38;;
35084;SDS011;21267;51.032;6.998;2024-03-08T03:02:01;27.20;;;21.37;;
35084;SDS011;21267;51.032;6.998;2024-03-08T03:04:28;28.23;;;22.07;;
35084;SDS011;21267;51.032;6.998;2024-03-08T03:06:55;29.80;;;22.38;;
35084;SDS011;21267;51.032;6.998;2024-03-08T03:09:21;28.20;;;21.92;;
35084;SDS011;21267;51.032;6.998;2024-03-08T03:11:53;28.88;;;21.50;;
35084;SDS011;21267;51.032;6.998;2024-03-08T03:14:21;30.02;;;21.98;;
35084;SDS011;21267;51.032;6.998;2024-03-08T03:16:49;26.92;;;21.45;;
35084;SDS011;21267;51.032;6.998;2024-03-08T03:19:16;25.95;;;21.95;;
35084;SDS011;21267;51.032;6.998;2024-03-08T03:21:43;28.20;;;21.85;;
35084;SDS011;21267;51.032;6.998;2024-03-08T03:24:10;28.58;;;20.25;;
35084;SDS011;21267;51.032;6.998;2024-03-08T03:26:37;27.80;;;20.47;;
35084;SDS011;21267;51.032;6.998;2024-03-08T03:29:07;27.00;;;21.10;;
35084;SDS011;21267;51.032;6.998;2024-03-08T03:34:03;30.65;;;21.75;;
35084;SDS011;21267;51.032;6.998;2024-03-08T03:36:30;32.05;;;21.42;;
35084;SDS011;21267;51.032;6.998;2024-03-08T03:38:57;32.15;;;22.52;;
35084;SDS011;21267;51.032;6.998;2024-03-08T03:41:43;30.13;;;22.52;;
35084;SDS011;21267;51.032;6.998;2024-03-08T03:44:13;31.52;;;22.75;;
35084;SDS011;21267;51.032;6.998;2024-03-08T03:46:43;27.60;;;21.40;;
35084;SDS011;21267;51.032;6.998;2024-03-08T03:49:13;27.95;;;21.45;;
35084;SDS011;21267;51.032;6.998;2024-03-08T03:51:39;28.20;;;21.20;;
35084;SDS011;21267;51.032;6.998;2024-03-08T03:54:06;28.52;;;20.60;;
35084;SDS011;21267;51.032;6.998;2024-03-08T03:56:34;28.00;;;21.67;;
35084;SDS011;21267;51.032;6.998;2024-03-08T03:59:00;29.80;;;21.80;;
35084;SDS011;21267;51.032;6.998;2024-03-08T04:01:28;28.73;;;20.00;;
35084;SDS011;21267;51.032;6.998;2024-03-08T04:03:56;31.33;;;22.88;;
35084;SDS011;21267;51.032;6.998;2024-03-08T04:06:23;28.55;;;20.60;;
35084;SDS011;21267;51.032;6.998;2024-03-08T04:08:50;27.35;;;20.90;;
35084;SDS011;21267;51.032;6.998;2024-03-08T04:11:17;29.90;;;21.52;;
35084;SDS011;21267;51.032;6.998;2024-03-08T04:13:44;27.38;;;22.33;;
35084;SDS011;21267;51.032;6.998;2024-03-08T04:16:11;27.83;;;20.75;;
35084;SDS011;21267;51.032;6.998;2024-03-08T04:18:38;25.60;;;19.90;;
35084;SDS011;21267;51.032;6.998;2024-03-08T04:21:05;29.10;;;21.30;;
35084;SDS011;21267;51.032;6.998;2024-03-08T04:23:34;27.63;;;21.55;;
35084;SDS011;21267;51.032;6.998;2024-03-08T04:26:04;27.20;;;21.15;;
35084;SDS011;21267;51.032;6.998;2024-03-08T04:28:32;29.33;;;20.75;;
35084;SDS011;21267;51.032;6.998;2024-03-08T04:30:59;28.50;;;21.25;;
35084;SDS011;21267;51.032;6.998;2024-03-08T04:33:27;28.77;;;20.98;;
35084;SDS011;21267;51.032;6.998;2024-03-08T04:35:54;30.83;;;22.23;;
35084;SDS011;21267;51.032;6.998;2024-03-08T04:38:21;27.58;;;21.88;;
35084;SDS011;21267;51.032;6.998;2024-03-08T04:40:49;28.60;;;21.65;;
35084;SDS011;21267;51.032;6.998;2024-03-08T04:43:16;28.10;;;19.70;;
35084;SDS011;21267;51.032;6.998;2024-03-08T04:45:45;31.40;;;22.40;;
35084;SDS011;21267;51.032;6.998;2024-03-08T04:48:12;28.42;;;21.25;;
35084;SDS011;21267;51.032;6.998;2024-03-08T04:50:39;29.10;;;22.13;;
35084;SDS011;21267;51.032;6.998;2024-03-08T04:53:06;29.17;;;21.50;;
35084;SDS011;21267;51.032;6.998;2024-03-08T04:55:34;32.90;;;22.42;;
35084;SDS011;21267;51.032;6.998;2024-03-08T04:58:01;34.03;;;23.10;;
35084;SDS011;21267;51.032;6.998;2024-03-08T05:00:30;31.90;;;24.00;;
35084;SDS011;21267;51.032;6.998;2024-03-08T05:02:57;30.88;;;22.42;;
35084;SDS011;21267;51.032;6.998;2024-03-08T05:05:24;29.23;;;17.98;;
35084;SDS011;21267;51.032;6.998;2024-03-08T05:10:20;23.90;;;15.85;;
35084;SDS011;21267;51.032;6.998;2024-03-08T05:12:46;32.05;;;22.17;;
35084;SDS011;21267;51.032;6.998;2024-03-08T05:15:13;29.93;;;21.70;;
35084;SDS011;21267;51.032;6.998;2024-03-08T05:17:41;31.48;;;22.20;;
35084;SDS011;21267;51.032;6.998;2024-03-08T05:20:08;22.43;;;17.27;;
35084;SDS011;21267;51.032;6.998;2024-03-08T05:22:39;31.20;;;22.33;;
35084;SDS011;21267;51.032;6.998;2024-03-08T05:27:35;30.02;;;21.45;;
35084;SDS011;21267;51.032;6.998;2024-03-08T05:30:02;30.20;;;22.67;;
35084;SDS011;21267;51.032;6.998;2024-03-08T05:32:31;30.60;;;22.42;;
35084;SDS011;21267;51.032;6.998;2024-03-08T05:34:58;30.85;;;22.50;;
35084;SDS011;21267;51.032;6.998;2024-03-08T05:37:25;33.35;;;22.33;;
35084;SDS011;21267;51.032;6.998;2024-03-08T05:39:52;30.43;;;20.27;;
35084;SDS011;21267;51.032;6.998;2024-03-08T05:42:20;30.73;;;22.95;;
35084;SDS011;21267;51.032;6.998;2024-03-08T05:44:47;31.58;;;22.60;;
35084;SDS011;21267;51.032;6.998;2024-03-08T05:47:16;29.98;;;21.50;;
35084;SDS011;21267;51.032;6.998;2024-03-08T05:49:42;31.17;;;22.17;;
35084;SDS011;21267;51.032;6.998;2024-03-08T05:52:10;31.55;;;21.45;;
35084;SDS011;21267;51.032;6.998;2024-03-08T05:54:37;33.78;;;23.70;;
35084;SDS011;21267;51.032;6.998;2024-03-08T05:57:04;33.97;;;22.83;;
35084;SDS011;21267;51.032;6.998;2024-03-08T05:59:31;34.67;;;25.03;;
35084;SDS011;21267;51.032;6.998;2024-03-08T06:01:58;31.57;;;23.13;;
35084;SDS011;21267;51.032;6.998;2024-03-08T06:04:25;33.08;;;22.75;;
35084;SDS011;21267;51.032;6.998;2024-03-08T06:06:52;39.83;;;26.27;;
35084;SDS011;21267;51.032;6.998;2024-03-08T06:09:22;56.20;;;38.63;;
35084;SDS011;21267;51.032;6.998;2024-03-08T06:11:53;35.22;;;23.85;;
35084;SDS011;21267;51.032;6.998;2024-03-08T06:14:21;27.25;;;20.58;;
35084;SDS011;21267;51.032;6.998;2024-03-08T06:16:50;31.23;;;22.90;;
35084;SDS011;21267;51.032;6.998;2024-03-08T06:19:17;48.38;;;33.38;;
35084;SDS011;21267;51.032;6.998;2024-03-08T06:21:43;39.10;;;28.08;;
35084;SDS011;21267;51.032;6.998;2024-03-08T06:24:11;30.30;;;22.57;;
35084;SDS011;21267;51.032;6.998;2024-03-08T06:26:38;34.53;;;24.23;;
35084;SDS011;21267;51.032;6.998;2024-03-08T06:29:05;32.55;;;24.25;;
35084;SDS011;21267;51.032;6.998;2024-03-08T06:34:00;27.27;;;18.03;;
35084;SDS011;21267;51.032;6.998;2024-03-08T06:36:29;30.48;;;21.73;;
35084;SDS011;21267;51.032;6.998;2024-03-08T06:38:56;32.15;;;23.50;;
35084;SDS011;21267;51.032;6.998;2024-03-08T06:41:24;33.03;;;24.10;;
35084;SDS011;21267;51.032;6.998;2024-03-08T06:43:51;33.90;;;22.70;;
35084;SDS011;21267;51.032;6.998;2024-03-08T06:46:18;36.43;;;26.30;;
35084;SDS011;21267;51.032;6.998;2024-03-08T06:48:47;32.35;;;24.98;;
35084;SDS011;21267;51.032;6.998;2024-03-08T06:51:16;31.42;;;22.48;;
35084;SDS011;21267;51.032;6.998;2024-03-08T06:53:44;33.08;;;24.48;;
35084;SDS011;21267;51.032;6.998;2024-03-08T06:56:11;31.43;;;23.13;;
35084;SDS011;21267;51.032;6.998;2024-03-08T06:58:38;33.50;;;25.03;;
35084;SDS011;21267;51.032;6.998;2024-03-08T07:01:05;35.35;;;23.83;;
35084;SDS011;21267;51.032;6.998;2024-03-08T07:03:34;36.42;;;25.52;;
35084;SDS011;21267;51.032;6.998;2024-03-08T07:06:01;37.45;;;28.02;;
35084;SDS011;21267;51.032;6.998;2024-03-08T07:08:30;30.80;;;24.13;;
35084;SDS011;21267;51.032;6.998;2024-03-08T07:10:57;30.60;;;24.07;;
35084;SDS011;21267;51.032;6.998;2024-03-08T07:13:25;31.38;;;23.17;;
35084;SDS011;21267;51.032;6.998;2024-03-08T07:15:55;30.08;;;22.77;;
35084;SDS011;21267;51.032;6.998;2024-03-08T07:18:22;27.40;;;22.35;;
35084;SDS011;21267;51.032;6.998;2024-03-08T07:20:49;30.90;;;22.67;;
35084;SDS011;21267;51.032;6.998;2024-03-08T07:23:16;40.58;;;26.23;;
35084;SDS011;21267;51.032;6.998;2024-03-08T07:26:03;24.45;;;18.23;;
35084;SDS011;21267;51.032;6.998;2024-03-08T07:28:30;19.87;;;13.43;;
35084;SDS011;21267;51.032;6.998;2024-03-08T18:57:33;20.27;;;13.80;;
35084;SDS011;21267;51.032;6.998;2024-03-08T19:00:00;18.97;;;12.90;;
35084;SDS011;21267;51.032;6.998;2024-03-08T19:02:27;23.90;;;16.77;;
35084;SDS011;21267;51.032;6.998;2024-03-08T19:04:54;29.90;;;18.77;;
35084;SDS011;21267;51.032;6.998;2024-03-08T19:07:27;21.60;;;14.75;;
35084;SDS011;21267;51.032;6.998;2024-03-08T19:10:05;20.60;;;13.15;;
35084;SDS011;21267;51.032;6.998;2024-03-08T19:12:40;19.98;;;13.52;;
35084;SDS011;21267;51.032;6.998;2024-03-08T19:15:14;21.80;;;13.70;;
35084;SDS011;21267;51.032;6.998;2024-03-08T19:17:43;18.98;;;13.52;;
35084;SDS011;21267;51.032;6.998;2024-03-08T19:22:43;18.25;;;12.80;;
35084;SDS011;21267;51.032;6.998;2024-03-08T19:27:38;18.98;;;13.95;;
35084;SDS011;21267;51.032;6.998;2024-03-08T19:30:06;19.90;;;13.90;;
35084;SDS011;21267;51.032;6.998;2024-03-08T19:32:35;18.95;;;13.60;;
35084;SDS011;21267;51.032;6.998;2024-03-08T19:35:05;19.13;;;13.15;;
35084;SDS011;21267;51.032;6.998;2024-03-08T19:37:45;20.88;;;14.32;;
35084;SDS011;21267;51.032;6.998;2024-03-08T19:40:15;20.95;;;13.95;;
35084;SDS011;21267;51.032;6.998;2024-03-08T19:42:48;20.50;;;13.75;;
35084;SDS011;21267;51.032;6.998;2024-03-08T19:45:20;21.13;;;13.70;;
35084;SDS011;21267;51.032;6.998;2024-03-08T19:50:15;18.45;;;9.82;;
35084;SDS011;21267;51.032;6.998;2024-03-08T19:52:44;31.38;;;21.25;;
35084;SDS011;21267;51.032;6.998;2024-03-08T19:55:15;18.58;;;12.98;;
35084;SDS011;21267;51.032;6.998;2024-03-08T19:57:44;22.38;;;14.85;;
35084;SDS011;21267;51.032;6.998;2024-03-08T20:00:17;21.05;;;13.75;;
35084;SDS011;21267;51.032;6.998;2024-03-08T20:02:52;24.25;;;14.68;;
35084;SDS011;21267;51.032;6.998;2024-03-08T20:05:23;22.65;;;14.52;;
35084;SDS011;21267;51.032;6.998;2024-03-08T20:07:52;22.00;;;14.63;;
35084;SDS011;21267;51.032;6.998;2024-03-08T20:10:22;22.35;;;14.73;;
35084;SDS011;21267;51.032;6.998;2024-03-08T20:12:50;21.05;;;13.90;;
35084;SDS011;21267;51.032;6.998;2024-03-08T20:15:20;20.55;;;14.55;;
35084;SDS011;21267;51.032;6.998;2024-03-08T20:17:55;19.23;;;13.95;;
35084;SDS011;21267;51.032;6.998;2024-03-08T20:20:23;20.52;;;13.23;;
35084;SDS011;21267;51.032;6.998;2024-03-08T20:22:51;17.30;;;12.55;;
35084;SDS011;21267;51.032;6.998;2024-03-08T20:25:19;22.77;;;14.13;;
35084;SDS011;21267;51.032;6.998;2024-03-08T20:27:48;21.40;;;15.05;;
35084;SDS011;21267;51.032;6.998;2024-03-08T20:30:21;21.67;;;15.02;;
35084;SDS011;21267;51.032;6.998;2024-03-08T20:32:49;20.02;;;12.93;;
35084;SDS011;21267;51.032;6.998;2024-03-08T20:35:23;20.25;;;14.40;;
35084;SDS011;21267;51.032;6.998;2024-03-08T20:37:51;21.55;;;14.32;;
35084;SDS011;21267;51.032;6.998;2024-03-08T20:40:19;21.48;;;14.93;;
35084;SDS011;21267;51.032;6.998;2024-03-08T20:43:05;20.73;;;14.00;;
35084;SDS011;21267;51.032;6.998;2024-03-08T20:45:38;18.80;;;13.15;;
35084;SDS011;21267;51.032;6.998;2024-03-08T20:48:05;14.23;;;10.50;;
35084;SDS011;21267;51.032;6.998;2024-03-08T20:53:06;17.05;;;11.98;;
35084;SDS011;21267;51.032;6.998;2024-03-08T20:55:36;17.58;;;13.18;;
35084;SDS011;21267;51.032;6.998;2024-03-08T20:58:09;19.02;;;13.95;;
35084;SDS011;21267;51.032;6.998;2024-03-08T21:00:37;19.95;;;13.60;;
35084;SDS011;21267;51.032;6.998;2024-03-08T21:03:08;21.88;;;14.45;;
35084;SDS011;21267;51.032;6.998;2024-03-08T21:05:41;21.45;;;14.60;;
35084;SDS011;21267;51.032;6.998;2024-03-08T21:08:10;19.80;;;13.90;;
35084;SDS011;21267;51.032;6.998;2024-03-08T21:10:39;19.52;;;13.63;;
35084;SDS011;21267;51.032;6.998;2024-03-08T21:13:08;18.27;;;12.52;;
35084;SDS011;21267;51.032;6.998;2024-03-08T21:15:39;20.65;;;14.02;;
35084;SDS011;21267;51.032;6.998;2024-03-08T21:18:07;18.40;;;12.73;;
35084;SDS011;21267;51.032;6.998;2024-03-08T21:20:36;25.13;;;17.30;;
35084;SDS011;21267;51.032;6.998;2024-03-08T21:25:31;19.85;;;14.90;;
35084;SDS011;21267;51.032;6.998;2024-03-08T21:28:01;19.42;;;13.63;;
35084;SDS011;21267;51.032;6.998;2024-03-08T21:30:30;19.77;;;13.75;;
35084;SDS011;21267;51.032;6.998;2024-03-08T21:32:57;19.67;;;14.83;;
35084;SDS011;21267;51.032;6.998;2024-03-08T21:37:52;18.40;;;12.97;;
35084;SDS011;21267;51.032;6.998;2024-03-08T21:40:22;18.92;;;12.45;;
35084;SDS011;21267;51.032;6.998;2024-03-08T21:42:57;19.15;;;12.70;;
35084;SDS011;21267;51.032;6.998;2024-03-08T21:45:30;21.73;;;14.10;;
35084;SDS011;21267;51.032;6.998;2024-03-08T21:47:58;20.55;;;14.40;;
35084;SDS011;21267;51.032;6.998;2024-03-08T21:50:30;17.75;;;12.93;;
35084;SDS011;21267;51.032;6.998;2024-03-08T21:52:58;23.85;;;12.20;;
35084;SDS011;21267;51.032;6.998;2024-03-08T21:55:29;16.48;;;11.75;;
35084;SDS011;21267;51.032;6.998;2024-03-08T21:57:58;19.55;;;13.77;;
35084;SDS011;21267;51.032;6.998;2024-03-08T22:00:25;19.75;;;13.77;;
35084;SDS011;21267;51.032;6.998;2024-03-08T22:03:01;16.77;;;11.57;;
35084;SDS011;21267;51.032;6.998;2024-03-08T22:05:29;20.80;;;13.07;;
35084;SDS011;21267;51.032;6.998;2024-03-08T22:07:56;18.02;;;11.40;;
35084;SDS011;21267;51.032;6.998;2024-03-08T22:10:24;17.88;;;11.57;;
35084;SDS011;21267;51.032;6.998;2024-03-08T22:12:54;18.55;;;12.27;;
35084;SDS011;21267;51.032;6.998;2024-03-08T22:15:22;16.95;;;12.10;;
35084;SDS011;21267;51.032;6.998;2024-03-08T22:17:51;16.67;;;12.60;;
35084;SDS011;21267;51.032;6.998;2024-03-08T22:20:25;19.00;;;12.23;;
35084;SDS011;21267;51.032;6.998;2024-03-08T22:22:58;17.63;;;11.95;;
35084;SDS011;21267;51.032;6.998;2024-03-08T22:25:30;19.60;;;13.60;;
35084;SDS011;21267;51.032;6.998;2024-03-08T22:27:59;19.38;;;13.20;;
35084;SDS011;21267;51.032;6.998;2024-03-08T22:30:26;16.65;;;12.73;;
35084;SDS011;21267;51.032;6.998;2024-03-08T22:32:54;18.67;;;11.93;;
35084;SDS011;21267;51.032;6.998;2024-03-08T22:35:23;17.02;;;12.27;;
35084;SDS011;21267;51.032;6.998;2024-03-08T22:37:52;17.80;;;12.75;;
35084;SDS011;21267;51.032;6.998;2024-03-08T22:40:22;17.13;;;11.98;;
35084;SDS011;21267;51.032;6.998;2024-03-08T22:42:54;15.68;;;11.73;;
35084;SDS011;21267;51.032;6.998;2024-03-08T22:45:21;15.05;;;11.02;;
35084;SDS011;21267;51.032;6.998;2024-03-08T22:47:51;18.70;;;13.20;;
35084;SDS011;21267;51.032;6.998;2024-03-08T22:50:18;19.25;;;12.57;;
35084;SDS011;21267;51.032;6.998;2024-03-08T22:52:45;16.88;;;12.25;;
35084;SDS011;21267;51.032;6.998;2024-03-08T22:55:15;17.45;;;12.73;;
35084;SDS011;21267;51.032;6.998;2024-03-08T22:57:48;16.08;;;11.15;;
35084;SDS011;21267;51.032;6.998;2024-03-08T23:00:17;16.55;;;12.55;;
35084;SDS011;21267;51.032;6.998;2024-03-08T23:02:52;16.55;;;11.82;;
35084;SDS011;21267;51.032;6.998;2024-03-08T23:05:20;17.85;;;12.60;;
35084;SDS011;21267;51.032;6.998;2024-03-08T23:07:49;14.93;;;11.80;;
35084;SDS011;21267;51.032;6.998;2024-03-08T23:10:19;15.77;;;12.60;;
35084;SDS011;21267;51.032;6.998;2024-03-08T23:12:50;15.82;;;11.85;;
35084;SDS011;21267;51.032;6.998;2024-03-08T23:15:19;19.02;;;11.10;;
35084;SDS011;21267;51.032;6.998;2024-03-08T23:17:50;15.77;;;11.43;;
35084;SDS011;21267;51.032;6.998;2024-03-08T23:20:19;17.83;;;11.50;;
35084;SDS011;21267;51.032;6.998;2024-03-08T23:22:47;17.42;;;12.20;;
35084;SDS011;21267;51.032;6.998;2024-03-08T23:25:19;15.50;;;11.02;;
35084;SDS011;21267;51.032;6.998;2024-03-08T23:27:50;16.02;;;11.25;;
35084;SDS011;21267;51.032;6.998;2024-03-08T23:30:19;14.57;;;9.90;;
35084;SDS011;21267;51.032;6.998;2024-03-08T23:32:49;15.50;;;11.52;;
35084;SDS011;21267;51.032;6.998;2024-03-08T23:35:17;13.82;;;10.75;;
35084;SDS011;21267;51.032;6.998;2024-03-08T23:37:45;18.45;;;12.05;;
35084;SDS011;21267;51.032;6.998;2024-03-08T23:40:16;15.80;;;12.18;;
35084;SDS011;21267;51.032;6.998;2024-03-08T23:42:48;16.60;;;12.00;;
35084;SDS011;21267;51.032;6.998;2024-03-08T23:45:18;17.05;;;11.85;;
35084;SDS011;21267;51.032;6.998;2024-03-08T23:47:52;17.10;;;11.60;;
35084;SDS011;21267;51.032;6.998;2024-03-08T23:50:29;16.63;;;12.30;;
35084;SDS011;21267;51.032;6.998;2024-03-08T23:52:58;18.27;;;12.68;;
35084;SDS011;21267;51.032;6.998;2024-03-08T23:55:27;15.60;;;11.32;;
35084;SDS011;21267;51.032;6.998;2024-03-08T23:57:57;15.45;;;11.55;;
